sensor_id;sensor_type;location;lat;lon;timestamp;pressure;altitude;pressure_sealevel;temperature;humidity
9523;BME280;63165;43.016;25.784;2023-01-04T00:02:25;101108.63;;;3.94;85.92
9523;BME280;63165;43.016;25.784;2023-01-04T00:04:54;101104.31;;;3.94;85.69
9523;BME280;63165;43.016;25.784;2023-01-04T00:07:22;101098.31;;;3.95;86.03
9523;BME280;63165;43.016;25.784;2023-01-04T00:09:49;101096.59;;;3.96;85.51
9523;BME280;63165;43.016;25.784;2023-01-04T00:12:17;101103.44;;;3.94;85.60
9523;BME280;63165;43.016;25.784;2023-01-04T00:14:44;101104.94;;;3.85;85.48
9523;BME280;63165;43.016;25.784;2023-01-04T00:17:11;101109.22;;;3.85;86.06
9523;BME280;63165;43.016;25.784;2023-01-04T00:19:38;101105.81;;;3.86;86.22
9523;BME280;63165;43.016;25.784;2023-01-04T00:22:05;101108.34;;;3.84;86.24
9523;BME280;63165;43.016;25.784;2023-01-04T00:24:34;101107.50;;;3.84;86.01
9523;BME280;63165;43.016;25.784;2023-01-04T00:27:01;101113.59;;;3.86;86.28
9523;BME280;63165;43.016;25.784;2023-01-04T00:29:28;101116.19;;;3.86;86.16
9523;BME280;63165;43.016;25.784;2023-01-04T00:31:55;101117.91;;;3.85;85.98
9523;BME280;63165;43.016;25.784;2023-01-04T00:34:22;101112.66;;;3.84;86.01
9523;BME280;63165;43.016;25.784;2023-01-04T00:36:50;101123.78;;;3.81;85.79
9523;BME280;63165;43.016;25.784;2023-01-04T00:39:17;101134.09;;;3.78;85.75
9523;BME280;63165;43.016;25.784;2023-01-04T00:41:47;101138.28;;;3.75;85.36
9523;BME280;63165;43.016;25.784;2023-01-04T00:44:15;101138.19;;;3.72;85.64
9523;BME280;63165;43.016;25.784;2023-01-04T00:46:43;101131.97;;;3.65;85.49
9523;BME280;63165;43.016;25.784;2023-01-04T00:49:11;101140.34;;;3.56;85.75
9523;BME280;63165;43.016;25.784;2023-01-04T00:51:39;101135.81;;;3.49;85.88
9523;BME280;63165;43.016;25.784;2023-01-04T00:54:10;101139.19;;;3.46;86.90
9523;BME280;63165;43.016;25.784;2023-01-04T00:56:38;101136.56;;;3.45;87.21
9523;BME280;63165;43.016;25.784;2023-01-04T00:59:06;101133.88;;;3.42;87.81
9523;BME280;63165;43.016;25.784;2023-01-04T01:01:34;101129.53;;;3.41;87.94
9523;BME280;63165;43.016;25.784;2023-01-04T01:04:02;101131.16;;;3.37;88.22
9523;BME280;63165;43.016;25.784;2023-01-04T01:06:31;101132.09;;;3.39;88.68
9523;BME280;63165;43.016;25.784;2023-01-04T01:09:00;101137.16;;;3.36;88.30
9523;BME280;63165;43.016;25.784;2023-01-04T01:11:27;101135.47;;;3.37;88.18
9523;BME280;63165;43.016;25.784;2023-01-04T01:13:55;101139.91;;;3.41;87.79
9523;BME280;63165;43.016;25.784;2023-01-04T01:16:25;101136.47;;;3.42;87.46
9523;BME280;63165;43.016;25.784;2023-01-04T01:18:53;101140.03;;;3.45;87.31
9523;BME280;63165;43.016;25.784;2023-01-04T01:21:21;101133.97;;;3.45;87.16
9523;BME280;63165;43.016;25.784;2023-01-04T01:23:49;101138.22;;;3.43;86.82
9523;BME280;63165;43.016;25.784;2023-01-04T01:26:18;101133.81;;;3.40;86.99
9523;BME280;63165;43.016;25.784;2023-01-04T01:28:46;101143.22;;;3.37;86.94
9523;BME280;63165;43.016;25.784;2023-01-04T01:31:15;101146.59;;;3.34;87.08
9523;BME280;63165;43.016;25.784;2023-01-04T01:33:46;101144.03;;;3.36;86.75
9523;BME280;63165;43.016;25.784;2023-01-04T01:36:15;101146.59;;;3.34;86.73
9523;BME280;63165;43.016;25.784;2023-01-04T01:38:43;101143.13;;;3.34;86.68
9523;BME280;63165;43.016;25.784;2023-01-04T01:41:16;101142.31;;;3.36;87.01
9523;BME280;63165;43.016;25.784;2023-01-04T01:43:53;101143.25;;;3.38;86.44
9523;BME280;63165;43.016;25.784;2023-01-04T01:46:24;101137.25;;;3.39;86.50
9523;BME280;63165;43.016;25.784;2023-01-04T01:48:57;101142.25;;;3.33;86.44
9523;BME280;63165;43.016;25.784;2023-01-04T01:51:26;101145.72;;;3.34;86.83
9523;BME280;63165;43.016;25.784;2023-01-04T01:53:56;101150.09;;;3.36;86.93
9523;BME280;63165;43.016;25.784;2023-01-04T01:56:25;101144.91;;;3.36;86.96
9523;BME280;63165;43.016;25.784;2023-01-04T01:58:54;101149.22;;;3.36;86.74
9523;BME280;63165;43.016;25.784;2023-01-04T02:01:24;101143.13;;;3.34;87.26
9523;BME280;63165;43.016;25.784;2023-01-04T02:03:53;101146.53;;;3.33;87.14
9523;BME280;63165;43.016;25.784;2023-01-04T02:06:27;101146.34;;;3.26;87.38
9523;BME280;63165;43.016;25.784;2023-01-04T02:08:56;101143.59;;;3.20;87.63
9523;BME280;63165;43.016;25.784;2023-01-04T02:11:23;101150.31;;;3.15;87.91
9523;BME280;63165;43.016;25.784;2023-01-04T02:13:51;101143.38;;;3.14;88.71
9523;BME280;63165;43.016;25.784;2023-01-04T02:16:55;101149.56;;;3.19;89.72
9523;BME280;63165;43.016;25.784;2023-01-04T02:20:00;101149.72;;;3.24;89.69
9523;BME280;63165;43.016;25.784;2023-01-04T02:28:59;101144.03;;;3.36;89.89
9523;BME280;63165;43.016;25.784;2023-01-04T02:31:36;101134.72;;;3.41;89.67
9523;BME280;63165;43.016;25.784;2023-01-04T02:34:11;101141.63;;;3.42;89.98
9523;BME280;63165;43.016;25.784;2023-01-04T02:36:48;101140.06;;;3.47;90.47
9523;BME280;63165;43.016;25.784;2023-01-04T02:39:29;101141.16;;;3.55;90.76
9523;BME280;63165;43.016;25.784;2023-01-04T02:42:06;101136.97;;;3.59;90.92
9523;BME280;63165;43.016;25.784;2023-01-04T02:44:42;101132.81;;;3.64;90.77
9523;BME280;63165;43.016;25.784;2023-01-04T02:47:23;101122.56;;;3.67;90.76
9523;BME280;63165;43.016;25.784;2023-01-04T02:50:16;101117.50;;;3.72;90.77
9523;BME280;63165;43.016;25.784;2023-01-04T02:52:59;101120.19;;;3.75;90.47
9523;BME280;63165;43.016;25.784;2023-01-04T02:55:34;101117.59;;;3.75;90.32
9523;BME280;63165;43.016;25.784;2023-01-04T02:58:09;101111.50;;;3.73;90.11
9523;BME280;63165;43.016;25.784;2023-01-04T03:00:48;101109.78;;;3.73;90.08
9523;BME280;63165;43.016;25.784;2023-01-04T03:03:45;101103.50;;;3.65;89.71
9523;BME280;63165;43.016;25.784;2023-01-04T03:06:39;101111.13;;;3.60;89.95
9523;BME280;63165;43.016;25.784;2023-01-04T03:09:12;101099.81;;;3.57;90.79
9523;BME280;63165;43.016;25.784;2023-01-04T03:11:44;101103.31;;;3.59;91.83
9523;BME280;63165;43.016;25.784;2023-01-04T03:14:35;101091.34;;;3.62;92.13
9523;BME280;63165;43.016;25.784;2023-01-04T03:17:07;101098.25;;;3.62;92.35
9523;BME280;63165;43.016;25.784;2023-01-04T03:19:39;101100.81;;;3.62;92.34
9523;BME280;63165;43.016;25.784;2023-01-04T03:22:22;101104.38;;;3.65;92.52
9523;BME280;63165;43.016;25.784;2023-01-04T03:25:09;101101.00;;;3.68;92.65
9523;BME280;63165;43.016;25.784;2023-01-04T03:27:56;101103.63;;;3.69;92.55
9523;BME280;63165;43.016;25.784;2023-01-04T03:30:46;101110.56;;;3.71;92.43
9523;BME280;63165;43.016;25.784;2023-01-04T03:33:34;101118.41;;;3.74;92.24
9523;BME280;63165;43.016;25.784;2023-01-04T03:36:28;101115.78;;;3.72;92.12
9523;BME280;63165;43.016;25.784;2023-01-04T03:39:01;101110.56;;;3.71;92.13
9523;BME280;63165;43.016;25.784;2023-01-04T03:41:49;101115.69;;;3.69;92.72
9523;BME280;63165;43.016;25.784;2023-01-04T03:44:43;101114.91;;;3.72;92.94
9523;BME280;63165;43.016;25.784;2023-01-04T03:47:32;101115.00;;;3.75;93.78
9523;BME280;63165;43.016;25.784;2023-01-04T03:50:21;101114.25;;;3.79;94.38
9523;BME280;63165;43.016;25.784;2023-01-04T03:52:52;101124.69;;;3.82;94.68
9523;BME280;63165;43.016;25.784;2023-01-04T03:55:21;101129.13;;;3.86;94.48
9523;BME280;63165;43.016;25.784;2023-01-04T03:57:50;101127.50;;;3.89;95.00
9523;BME280;63165;43.016;25.784;2023-01-04T04:00:18;101131.00;;;3.92;95.45
9523;BME280;63165;43.016;25.784;2023-01-04T04:02:47;101116.44;;;3.95;95.06
9523;BME280;63165;43.016;25.784;2023-01-04T04:05:17;101128.53;;;3.96;94.27
9523;BME280;63165;43.016;25.784;2023-01-04T04:08:04;101131.13;;;3.96;94.26
9523;BME280;63165;43.016;25.784;2023-01-04T04:10:48;101122.44;;;3.94;93.66
9523;BME280;63165;43.016;25.784;2023-01-04T04:13:15;101129.28;;;3.92;93.42
9523;BME280;63165;43.016;25.784;2023-01-04T04:15:43;101132.75;;;3.93;93.25
9523;BME280;63165;43.016;25.784;2023-01-04T04:18:10;101129.22;;;3.91;93.20
9523;BME280;63165;43.016;25.784;2023-01-04T04:20:37;101134.41;;;3.89;92.61
9523;BME280;63165;43.016;25.784;2023-01-04T04:23:06;101141.22;;;3.87;91.97
9523;BME280;63165;43.016;25.784;2023-01-04T04:25:33;101143.78;;;3.85;91.75
9523;BME280;63165;43.016;25.784;2023-01-04T04:28:00;101144.66;;;3.86;91.52
9523;BME280;63165;43.016;25.784;2023-01-04T04:30:27;101142.00;;;3.84;91.09
9523;BME280;63165;43.016;25.784;2023-01-04T04:32:55;101135.91;;;3.82;90.58
9523;BME280;63165;43.016;25.784;2023-01-04T04:35:22;101138.41;;;3.79;90.44
9523;BME280;63165;43.016;25.784;2023-01-04T04:37:49;101142.59;;;3.74;90.17
9523;BME280;63165;43.016;25.784;2023-01-04T04:40:18;101145.03;;;3.69;89.67
9523;BME280;63165;43.016;25.784;2023-01-04T04:42:59;101148.31;;;3.64;89.77
9523;BME280;63165;43.016;25.784;2023-01-04T04:45:26;101145.63;;;3.61;89.86
9523;BME280;63165;43.016;25.784;2023-01-04T04:47:54;101149.06;;;3.60;89.62
9523;BME280;63165;43.016;25.784;2023-01-04T04:50:21;101151.50;;;3.55;89.41
9523;BME280;63165;43.016;25.784;2023-01-04T04:52:48;101147.00;;;3.48;89.11
9523;BME280;63165;43.016;25.784;2023-01-04T04:55:15;101151.94;;;3.40;89.24
9523;BME280;63165;43.016;25.784;2023-01-04T04:57:44;101149.13;;;3.33;89.29
9523;BME280;63165;43.016;25.784;2023-01-04T05:00:13;101154.22;;;3.29;89.59
9523;BME280;63165;43.016;25.784;2023-01-04T05:02:40;101161.06;;;3.27;89.75
9523;BME280;63165;43.016;25.784;2023-01-04T05:05:08;101161.00;;;3.26;89.96
9523;BME280;63165;43.016;25.784;2023-01-04T05:07:35;101160.94;;;3.24;90.75
9523;BME280;63165;43.016;25.784;2023-01-04T05:10:03;101163.63;;;3.27;90.90
9523;BME280;63165;43.016;25.784;2023-01-04T05:12:30;101155.94;;;3.30;91.02
9523;BME280;63165;43.016;25.784;2023-01-04T05:15:17;101155.88;;;3.27;91.40
9523;BME280;63165;43.016;25.784;2023-01-04T05:17:44;101162.84;;;3.30;91.95
9523;BME280;63165;43.016;25.784;2023-01-04T05:20:11;101165.56;;;3.35;92.43
9523;BME280;63165;43.016;25.784;2023-01-04T05:22:38;101163.88;;;3.35;92.35
9523;BME280;63165;43.016;25.784;2023-01-04T05:25:07;101175.97;;;3.36;92.38
9523;BME280;63165;43.016;25.784;2023-01-04T05:27:35;101178.59;;;3.38;92.89
9523;BME280;63165;43.016;25.784;2023-01-04T05:30:02;101177.78;;;3.39;93.06
9523;BME280;63165;43.016;25.784;2023-01-04T05:32:48;101178.69;;;3.41;92.75
9523;BME280;63165;43.016;25.784;2023-01-04T05:35:16;101183.09;;;3.43;93.42
9523;BME280;63165;43.016;25.784;2023-01-04T05:37:43;101181.41;;;3.45;93.48
9523;BME280;63165;43.016;25.784;2023-01-04T05:40:10;101188.41;;;3.48;93.23
9523;BME280;63165;43.016;25.784;2023-01-04T05:42:38;101190.25;;;3.52;93.72
9523;BME280;63165;43.016;25.784;2023-01-04T05:45:06;101186.81;;;3.53;93.53
9523;BME280;63165;43.016;25.784;2023-01-04T05:47:33;101192.16;;;3.58;93.82
9523;BME280;63165;43.016;25.784;2023-01-04T05:50:03;101191.44;;;3.63;93.85
9523;BME280;63165;43.016;25.784;2023-01-04T05:52:30;101191.63;;;3.69;94.05
9523;BME280;63165;43.016;25.784;2023-01-04T05:54:58;101201.28;;;3.75;94.12
9523;BME280;63165;43.016;25.784;2023-01-04T05:57:25;101204.91;;;3.80;93.97
9523;BME280;63165;43.016;25.784;2023-01-04T05:59:52;101207.59;;;3.85;94.35
9523;BME280;63165;43.016;25.784;2023-01-04T06:02:22;101203.56;;;3.93;94.46
9523;BME280;63165;43.016;25.784;2023-01-04T06:04:50;101200.25;;;3.99;94.84
9523;BME280;63165;43.016;25.784;2023-01-04T06:07:19;101209.91;;;4.04;94.87
9523;BME280;63165;43.016;25.784;2023-01-04T06:09:46;101215.25;;;4.11;94.90
9523;BME280;63165;43.016;25.784;2023-01-04T06:12:14;101225.78;;;4.17;95.21
9523;BME280;63165;43.016;25.784;2023-01-04T06:14:41;101208.72;;;4.23;95.28
9523;BME280;63165;43.016;25.784;2023-01-04T06:17:08;101209.72;;;4.28;95.49
9523;BME280;63165;43.016;25.784;2023-01-04T06:19:35;101206.38;;;4.33;95.51
9523;BME280;63165;43.016;25.784;2023-01-04T06:22:03;101215.16;;;4.38;96.14
9523;BME280;63165;43.016;25.784;2023-01-04T06:24:31;101210.13;;;4.44;96.12
9523;BME280;63165;43.016;25.784;2023-01-04T06:26:59;101221.53;;;4.51;95.83
9523;BME280;63165;43.016;25.784;2023-01-04T06:29:27;101213.03;;;4.56;95.93
9523;BME280;63165;43.016;25.784;2023-01-04T06:31:54;101224.34;;;4.58;95.47
9523;BME280;63165;43.016;25.784;2023-01-04T06:34:21;101225.22;;;4.59;95.61
9523;BME280;63165;43.016;25.784;2023-01-04T06:36:48;101225.38;;;4.65;94.82
9523;BME280;63165;43.016;25.784;2023-01-04T06:39:16;101219.31;;;4.64;93.88
9523;BME280;63165;43.016;25.784;2023-01-04T06:41:45;101221.16;;;4.69;93.33
9523;BME280;63165;43.016;25.784;2023-01-04T06:44:12;101221.25;;;4.72;92.74
9523;BME280;63165;43.016;25.784;2023-01-04T06:46:39;101222.94;;;4.71;92.89
9523;BME280;63165;43.016;25.784;2023-01-04T06:49:06;101219.56;;;4.74;92.84
9523;BME280;63165;43.016;25.784;2023-01-04T06:51:34;101226.50;;;4.75;92.81
9523;BME280;63165;43.016;25.784;2023-01-04T06:54:01;101232.63;;;4.78;92.61
9523;BME280;63165;43.016;25.784;2023-01-04T06:56:28;101238.81;;;4.83;92.96
9523;BME280;63165;43.016;25.784;2023-01-04T06:58:58;101232.88;;;4.88;93.49
9523;BME280;63165;43.016;25.784;2023-01-04T07:01:25;101237.34;;;4.93;94.54
9523;BME280;63165;43.016;25.784;2023-01-04T07:03:52;101237.50;;;4.99;94.87
9523;BME280;63165;43.016;25.784;2023-01-04T07:06:19;101235.06;;;5.05;94.79
9523;BME280;63165;43.016;25.784;2023-01-04T07:08:47;101232.63;;;5.12;94.98
9523;BME280;63165;43.016;25.784;2023-01-04T07:11:14;101235.34;;;5.18;95.35
9523;BME280;63165;43.016;25.784;2023-01-04T07:13:41;101240.75;;;5.25;95.25
9523;BME280;63165;43.016;25.784;2023-01-04T07:16:10;101248.59;;;5.29;95.29
9523;BME280;63165;43.016;25.784;2023-01-04T07:18:37;101241.81;;;5.34;95.61
9523;BME280;63165;43.016;25.784;2023-01-04T07:21:05;101243.63;;;5.38;95.36
9523;BME280;63165;43.016;25.784;2023-01-04T07:23:32;101239.44;;;5.43;95.35
9523;BME280;63165;43.016;25.784;2023-01-04T07:26:02;101245.53;;;5.45;95.07
9523;BME280;63165;43.016;25.784;2023-01-04T07:28:29;101252.59;;;5.51;94.90
9523;BME280;63165;43.016;25.784;2023-01-04T07:31:15;101250.06;;;5.55;95.66
9523;BME280;63165;43.016;25.784;2023-01-04T07:33:42;101241.50;;;5.58;95.63
9523;BME280;63165;43.016;25.784;2023-01-04T07:36:10;101244.31;;;5.67;95.28
9523;BME280;63165;43.016;25.784;2023-01-04T07:38:37;101244.44;;;5.73;95.27
9523;BME280;63165;43.016;25.784;2023-01-04T07:41:04;101242.00;;;5.81;96.26
9523;BME280;63165;43.016;25.784;2023-01-04T07:43:31;101254.34;;;5.90;97.35
9523;BME280;63165;43.016;25.784;2023-01-04T07:45:59;101254.38;;;5.93;97.20
9523;BME280;63165;43.016;25.784;2023-01-04T07:48:27;101250.09;;;5.93;96.78
9523;BME280;63165;43.016;25.784;2023-01-04T07:50:55;101244.03;;;5.94;96.74
9523;BME280;63165;43.016;25.784;2023-01-04T07:53:23;101252.75;;;5.96;96.47
9523;BME280;63165;43.016;25.784;2023-01-04T07:55:54;101264.09;;;6.00;96.87
9523;BME280;63165;43.016;25.784;2023-01-04T07:58:21;101252.97;;;6.06;96.50
9523;BME280;63165;43.016;25.784;2023-01-04T08:00:49;101252.91;;;6.02;96.46
9523;BME280;63165;43.016;25.784;2023-01-04T08:03:17;101267.63;;;6.03;96.89
9523;BME280;63165;43.016;25.784;2023-01-04T08:05:45;101247.75;;;6.06;96.78
9523;BME280;63165;43.016;25.784;2023-01-04T08:08:13;101245.31;;;6.13;97.12
9523;BME280;63165;43.016;25.784;2023-01-04T08:10:40;101253.25;;;6.19;96.56
9523;BME280;63165;43.016;25.784;2023-01-04T08:13:08;101256.81;;;6.23;97.26
9523;BME280;63165;43.016;25.784;2023-01-04T08:15:35;101253.53;;;6.33;97.84
9523;BME280;63165;43.016;25.784;2023-01-04T08:18:02;101252.78;;;6.39;98.30
9523;BME280;63165;43.016;25.784;2023-01-04T08:20:30;101257.25;;;6.46;98.08
9523;BME280;63165;43.016;25.784;2023-01-04T08:22:59;101252.19;;;6.54;97.78
9523;BME280;63165;43.016;25.784;2023-01-04T08:25:27;101258.41;;;6.62;97.43
9523;BME280;63165;43.016;25.784;2023-01-04T08:27:54;101263.72;;;6.67;97.39
9523;BME280;63165;43.016;25.784;2023-01-04T08:30:21;101267.28;;;6.72;97.33
9523;BME280;63165;43.016;25.784;2023-01-04T08:32:49;101266.53;;;6.77;97.49
9523;BME280;63165;43.016;25.784;2023-01-04T08:35:18;101257.03;;;6.79;97.12
9523;BME280;63165;43.016;25.784;2023-01-04T08:37:45;101260.66;;;6.89;97.34
9523;BME280;63165;43.016;25.784;2023-01-04T08:40:14;101266.88;;;6.96;97.25
9523;BME280;63165;43.016;25.784;2023-01-04T08:42:41;101263.53;;;7.05;97.40
9523;BME280;63165;43.016;25.784;2023-01-04T08:45:09;101268.84;;;7.11;96.97
9523;BME280;63165;43.016;25.784;2023-01-04T08:47:36;101267.22;;;7.17;96.11
9523;BME280;63165;43.016;25.784;2023-01-04T08:50:04;101268.19;;;7.24;96.22
9523;BME280;63165;43.016;25.784;2023-01-04T08:52:31;101273.50;;;7.30;96.25
9523;BME280;63165;43.016;25.784;2023-01-04T08:54:59;101262.31;;;7.36;96.49
9523;BME280;63165;43.016;25.784;2023-01-04T08:57:27;101262.41;;;7.42;96.54
9523;BME280;63165;43.016;25.784;2023-01-04T08:59:55;101259.91;;;7.48;95.98
9523;BME280;63165;43.016;25.784;2023-01-04T09:02:24;101264.34;;;7.55;96.42
9523;BME280;63165;43.016;25.784;2023-01-04T09:04:52;101269.69;;;7.63;96.26
9523;BME280;63165;43.016;25.784;2023-01-04T09:07:24;101265.41;;;7.68;96.11
9523;BME280;63165;43.016;25.784;2023-01-04T09:09:51;101272.47;;;7.75;96.34
9523;BME280;63165;43.016;25.784;2023-01-04T09:12:19;101263.00;;;7.82;96.09
9523;BME280;63165;43.016;25.784;2023-01-04T09:14:48;101260.47;;;7.88;96.38
9523;BME280;63165;43.016;25.784;2023-01-04T09:17:16;101264.06;;;7.95;96.75
9523;BME280;63165;43.016;25.784;2023-01-04T09:19:43;101254.63;;;8.05;96.30
9523;BME280;63165;43.016;25.784;2023-01-04T09:22:10;101248.63;;;8.13;95.81
9523;BME280;63165;43.016;25.784;2023-01-04T09:24:37;101247.88;;;8.21;95.89
9523;BME280;63165;43.016;25.784;2023-01-04T09:27:05;101245.34;;;8.27;95.39
9523;BME280;63165;43.016;25.784;2023-01-04T09:29:32;101236.72;;;8.32;95.47
9523;BME280;63165;43.016;25.784;2023-01-04T09:32:01;101234.19;;;8.39;95.00
9523;BME280;63165;43.016;25.784;2023-01-04T09:34:28;101229.91;;;8.45;95.10
9523;BME280;63165;43.016;25.784;2023-01-04T09:36:55;101230.84;;;8.50;94.18
9523;BME280;63165;43.016;25.784;2023-01-04T09:39:22;101235.25;;;8.56;94.71
9523;BME280;63165;43.016;25.784;2023-01-04T09:41:56;101238.81;;;8.61;94.40
9523;BME280;63165;43.016;25.784;2023-01-04T09:44:36;101238.84;;;8.64;94.24
9523;BME280;63165;43.016;25.784;2023-01-04T09:47:09;101244.97;;;8.66;93.78
9523;BME280;63165;43.016;25.784;2023-01-04T09:49:41;101237.09;;;8.63;93.67
9523;BME280;63165;43.016;25.784;2023-01-04T09:52:16;101240.56;;;8.61;93.17
9523;BME280;63165;43.016;25.784;2023-01-04T09:54:49;101247.47;;;8.57;93.62
9523;BME280;63165;43.016;25.784;2023-01-04T09:57:21;101235.28;;;8.58;93.38
9523;BME280;63165;43.016;25.784;2023-01-04T09:59:53;101227.41;;;8.54;93.23
9523;BME280;63165;43.016;25.784;2023-01-04T10:02:29;101228.28;;;8.52;92.63
9523;BME280;63165;43.016;25.784;2023-01-04T10:05:01;101230.00;;;8.51;93.10
9523;BME280;63165;43.016;25.784;2023-01-04T10:07:30;101228.25;;;8.50;93.32
9523;BME280;63165;43.016;25.784;2023-01-04T10:09:59;101235.22;;;8.50;92.70
9523;BME280;63165;43.016;25.784;2023-01-04T10:12:37;101239.53;;;8.48;92.68
9523;BME280;63165;43.016;25.784;2023-01-04T10:15:17;101229.06;;;8.45;93.02
9523;BME280;63165;43.016;25.784;2023-01-04T10:17:57;101225.56;;;8.43;92.86
9523;BME280;63165;43.016;25.784;2023-01-04T10:20:51;101229.84;;;8.41;93.10
9523;BME280;63165;43.016;25.784;2023-01-04T10:23:31;101229.81;;;8.36;93.29
9523;BME280;63165;43.016;25.784;2023-01-04T10:26:09;101235.03;;;8.38;93.25
9523;BME280;63165;43.016;25.784;2023-01-04T10:31:40;101222.97;;;8.44;93.70
9523;BME280;63165;43.016;25.784;2023-01-04T10:34:27;101228.19;;;8.44;93.76
9523;BME280;63165;43.016;25.784;2023-01-04T10:36:57;101229.03;;;8.43;93.28
9523;BME280;63165;43.016;25.784;2023-01-04T10:39:28;101222.13;;;8.47;93.30
9523;BME280;63165;43.016;25.784;2023-01-04T10:41:59;101219.56;;;8.50;93.10
9523;BME280;63165;43.016;25.784;2023-01-04T10:44:37;101210.84;;;8.51;93.39
9523;BME280;63165;43.016;25.784;2023-01-04T10:47:10;101213.47;;;8.51;93.23
9523;BME280;63165;43.016;25.784;2023-01-04T10:49:45;101210.00;;;8.52;93.14
9523;BME280;63165;43.016;25.784;2023-01-04T10:52:16;101216.13;;;8.54;93.51
9523;BME280;63165;43.016;25.784;2023-01-04T10:54:46;101217.88;;;8.55;93.13
9523;BME280;63165;43.016;25.784;2023-01-04T10:57:19;101214.44;;;8.59;93.20
9523;BME280;63165;43.016;25.784;2023-01-04T10:59:52;101215.34;;;8.63;93.47
9523;BME280;63165;43.016;25.784;2023-01-04T11:02:26;101207.56;;;8.67;92.68
9523;BME280;63165;43.016;25.784;2023-01-04T11:05:07;101216.31;;;8.74;92.58
9523;BME280;63165;43.016;25.784;2023-01-04T11:07:40;101223.34;;;8.81;92.21
9523;BME280;63165;43.016;25.784;2023-01-04T11:10:12;101212.94;;;8.86;91.81
9523;BME280;63165;43.016;25.784;2023-01-04T11:12:41;101218.22;;;8.89;91.98
9523;BME280;63165;43.016;25.784;2023-01-04T11:15:09;101219.97;;;8.91;91.56
9523;BME280;63165;43.016;25.784;2023-01-04T11:17:37;101214.75;;;8.93;91.87
9523;BME280;63165;43.016;25.784;2023-01-04T11:20:07;101214.78;;;8.96;91.39
9523;BME280;63165;43.016;25.784;2023-01-04T11:22:38;101205.25;;;8.98;91.61
9523;BME280;63165;43.016;25.784;2023-01-04T11:25:11;101212.22;;;9.02;91.04
9523;BME280;63165;43.016;25.784;2023-01-04T11:27:43;101210.50;;;9.04;91.47
9523;BME280;63165;43.016;25.784;2023-01-04T11:30:14;101208.78;;;9.06;90.73
9523;BME280;63165;43.016;25.784;2023-01-04T11:32:48;101213.13;;;9.06;90.67
9523;BME280;63165;43.016;25.784;2023-01-04T11:35:39;101200.91;;;9.03;91.09
9523;BME280;63165;43.016;25.784;2023-01-04T11:38:13;101199.22;;;9.08;91.06
9523;BME280;63165;43.016;25.784;2023-01-04T11:40:41;101191.41;;;9.11;90.33
9523;BME280;63165;43.016;25.784;2023-01-04T11:43:16;101209.72;;;9.13;90.09
9523;BME280;63165;43.016;25.784;2023-01-04T11:45:53;101195.75;;;9.12;90.64
9523;BME280;63165;43.016;25.784;2023-01-04T11:48:34;101200.13;;;9.13;90.63
9523;BME280;63165;43.016;25.784;2023-01-04T11:51:04;101201.00;;;9.16;90.66
9523;BME280;63165;43.016;25.784;2023-01-04T11:53:33;101193.22;;;9.19;90.61
9523;BME280;63165;43.016;25.784;2023-01-04T11:56:18;101193.22;;;9.20;90.47
9523;BME280;63165;43.016;25.784;2023-01-04T11:59:11;101193.22;;;9.20;90.46
9523;BME280;63165;43.016;25.784;2023-01-04T12:01:40;101187.16;;;9.23;90.54
9523;BME280;63165;43.016;25.784;2023-01-04T12:04:11;101176.66;;;9.20;89.98
9523;BME280;63165;43.016;25.784;2023-01-04T12:06:46;101180.13;;;9.17;90.00
9523;BME280;63165;43.016;25.784;2023-01-04T12:09:16;101167.06;;;9.16;90.14
9523;BME280;63165;43.016;25.784;2023-01-04T12:11:46;101188.00;;;9.19;90.30
9523;BME280;63165;43.016;25.784;2023-01-04T12:14:21;101188.00;;;9.19;90.08
9523;BME280;63165;43.016;25.784;2023-01-04T12:16:55;101182.78;;;9.19;90.02
9523;BME280;63165;43.016;25.784;2023-01-04T12:19:23;101189.72;;;9.20;90.04
9523;BME280;63165;43.016;25.784;2023-01-04T12:21:55;101180.16;;;9.19;90.14
9523;BME280;63165;43.016;25.784;2023-01-04T12:24:25;101185.38;;;9.17;89.90
9523;BME280;63165;43.016;25.784;2023-01-04T12:26:54;101174.03;;;9.18;90.00
9523;BME280;63165;43.016;25.784;2023-01-04T12:29:41;101177.56;;;9.19;90.81
9523;BME280;63165;43.016;25.784;2023-01-04T12:32:37;101174.03;;;9.18;90.67
9523;BME280;63165;43.016;25.784;2023-01-04T12:38:09;101181.03;;;9.19;89.80
9523;BME280;63165;43.016;25.784;2023-01-04T12:40:51;101187.09;;;9.18;90.96
9523;BME280;63165;43.016;25.784;2023-01-04T12:43:35;101197.53;;;9.18;90.93
9523;BME280;63165;43.016;25.784;2023-01-04T12:46:39;101196.69;;;9.19;90.86
9523;BME280;63165;43.016;25.784;2023-01-04T12:49:43;101196.72;;;9.21;90.87
9523;BME280;63165;43.016;25.784;2023-01-04T12:52:44;101200.16;;;9.20;91.02
9523;BME280;63165;43.016;25.784;2023-01-04T12:59:06;101199.28;;;9.15;91.48
9523;BME280;63165;43.016;25.784;2023-01-04T13:01:35;101211.50;;;9.19;91.16
9523;BME280;63165;43.016;25.784;2023-01-04T13:06:45;101206.28;;;9.20;91.15
9523;BME280;63165;43.016;25.784;2023-01-04T13:09:17;101217.59;;;9.21;90.47
9523;BME280;63165;43.016;25.784;2023-01-04T13:12:05;101213.22;;;9.17;91.47
9523;BME280;63165;43.016;25.784;2023-01-04T13:14:39;101218.44;;;9.17;91.23
9523;BME280;63165;43.016;25.784;2023-01-04T13:17:18;101226.25;;;9.15;91.45
9523;BME280;63165;43.016;25.784;2023-01-04T13:19:46;101222.75;;;9.13;91.71
9523;BME280;63165;43.016;25.784;2023-01-04T13:22:19;101223.66;;;9.15;91.48
9523;BME280;63165;43.016;25.784;2023-01-04T13:24:48;101221.06;;;9.17;91.21
9523;BME280;63165;43.016;25.784;2023-01-04T13:27:18;101231.50;;;9.18;91.30
9523;BME280;63165;43.016;25.784;2023-01-04T13:29:48;101224.56;;;9.20;90.68
9523;BME280;63165;43.016;25.784;2023-01-04T13:32:21;101227.16;;;9.17;90.95
9523;BME280;63165;43.016;25.784;2023-01-04T13:34:53;101225.41;;;9.18;91.59
9523;BME280;63165;43.016;25.784;2023-01-04T13:37:31;101233.22;;;9.18;91.52
9523;BME280;63165;43.016;25.784;2023-01-04T13:40:21;101242.84;;;9.19;91.28
9523;BME280;63165;43.016;25.784;2023-01-04T13:43:00;101234.13;;;9.20;91.27
9523;BME280;63165;43.016;25.784;2023-01-04T13:45:49;101232.38;;;9.17;91.76